Marfret Marajo — FNOP — position and weather

sailwx.info

Track history (hours):
 
Tides and Currents Weather Stations Pressure Air Temp Water Temp Dewpoint Dewpoint Depression Visibility Wind Speed Wind Dir Waves Ship Positions

Marfret Marajo

Last reported at 2018-Feb-13 08:42 UTC. Time now 2018-Feb-18 01:32 UTC.
Position N 36°05' W 027°24'.

Length 170 m; draft 9.3 m.

Type: Ship (hazmat cat A). MMSI: 228349600.

Date/timePositionNaut miles runAvg speedWind from/ knotsBaromVisibWave heightAir tempDewpointWater temp
2018-Feb-13 08:42N 36°05' W 027°24'5818.0
2018-Feb-13 05:28N 36°41' W 026°28'817.9
2018-Feb-13 05:00N 36°47' W 026°20'918.2
2018-Feb-13 04:30N 36°52' W 026°12'918.4
2018-Feb-13 04:01N 36°58' W 026°03'918.4
2018-Feb-13 03:30N 37°04' W 025°54'918.4
2018-Feb-13 03:01N 37°10' W 025°45'918.8
2018-Feb-13 02:30N 37°15' W 025°35'918.7
2018-Feb-13 02:00N 37°21' W 025°26'918.7
2018-Feb-13 01:31N 37°27' W 025°17'918.5
2018-Feb-13 01:00N 37°33' W 025°08'918.2
2018-Feb-13 00:30N 37°39' W 024°59'918.6
2018-Feb-13 00:01N 37°44' W 024°49'918.3
2018-Feb-12 23:31N 37°50' W 024°40'918.4
2018-Feb-12 23:00N 37°56' W 024°31'918.6
2018-Feb-12 22:31N 38°02' W 024°23'918.5
2018-Feb-12 22:01N 38°08' W 024°14'918.4
2018-Feb-12 21:30N 38°14' W 024°05'918.4
2018-Feb-12 21:01N 38°20' W 023°56'1218.3
2018-Feb-12 20:20N 38°27' W 023°43'618.3
2018-Feb-12 20:00N 38°31' W 023°38'93818.3
2018-Feb-10 16:38N 48°20' W 006°53'1017.6
2018-Feb-10 16:05N 48°26' W 006°41'15216.0
2018-Feb-10 06:33N 49°49' W 003°26'318.3
2018-Feb-10 06:24N 49°50' W 003°22'718.1
2018-Feb-10 06:00N 49°54' W 003°13'918.1
2018-Feb-10 05:31N 49°58' W 003°00'917.4
2018-Feb-10 05:00N 50°01' W 002°47'917.3
2018-Feb-10 04:29N 50°02' W 002°33'1816.9
2018-Feb-10 03:26N 50°05' W 002°06'716.3
2018-Feb-10 03:00N 50°03' W 001°55'816.7
2018-Feb-10 02:31N 50°00' W 001°44'816.8
2018-Feb-10 02:01N 49°57' W 001°32'917.0
2018-Feb-10 01:31N 49°53' W 001°20'917.1
2018-Feb-10 01:01N 49°50' W 001°08'917.6
2018-Feb-10 00:30N 49°46' W 000°55'918.2
2018-Feb-10 00:00N 49°42' W 000°42'917.9
2018-Feb-09 23:30N 49°39' W 000°30'918.1
2018-Feb-09 23:01N 49°35' W 000°17'417.6
2018-Feb-09 22:46N 49°33' W 000°11'415.9
2018-Feb-09 22:30N 49°31' W 000°06'510.9
2018-Feb-09 22:00N 49°30' E 000°03'6 0.4
2018-Feb-09 06:00N 49°27' E 000°10'2 3.2
2018-Feb-09 05:30N 49°28' E 000°08'2 4.8
2018-Feb-09 05:00N 49°29' E 000°05'1 0.0
2018-Feb-08 10:30N 49°29' E 000°04'612.1
2018-Feb-08 10:00N 49°31' W 000°05'1514.8
2018-Feb-08 09:00N 49°46' W 000°00'6217.9
2018-Feb-08 05:30N 50°40' E 000°48'6719.1
2018-Feb-08 02:01N 51°29' E 001°60'1020.9
2018-Feb-08 01:31N 51°37' E 002°12'1121.0
2018-Feb-08 01:00N 51°45' E 002°23'4418.8
2018-Feb-07 22:41N 52°03' E 003°27'318.5
2018-Feb-07 22:30N 52°03' E 003°33'917.1
2018-Feb-07 22:00N 52°03' E 003°46'611.3
2018-Feb-07 21:31N 52°02' E 003°55'21 1.8
2018-Feb-07 09:30N 51°54' E 004°27'0 0.0
2018-Feb-07 09:00N 51°54' E 004°27'0 0.0
2018-Feb-07 08:30N 51°54' E 004°27'0 0.0
2018-Feb-07 08:00N 51°54' E 004°27'0 0.0
2018-Feb-07 07:30N 51°54' E 004°27'0 0.0
2018-Feb-07 07:00N 51°54' E 004°27'0 0.0
2018-Feb-07 06:30N 51°54' E 004°27'0 0.8
2018-Feb-07 06:00N 51°54' E 004°27'1 1.2
2018-Feb-07 05:29N 51°53' E 004°26'0 0.0
2018-Feb-07 04:59N 51°53' E 004°26'0 0.0
2018-Feb-07 04:29N 51°53' E 004°26'0 0.0
2018-Feb-07 03:59N 51°53' E 004°26'0 0.0
2018-Feb-07 03:29N 51°53' E 004°26'0 0.0
2018-Feb-07 02:59N 51°53' E 004°26'0 0.0
2018-Feb-07 02:29N 51°53' E 004°26'0 0.0
2018-Feb-07 01:59N 51°53' E 004°26'0 0.0
2018-Feb-07 01:29N 51°53' E 004°26'0 0.0
2018-Feb-07 00:59N 51°53' E 004°26'0 0.0
2018-Feb-07 00:29N 51°53' E 004°26'0 0.0
2018-Feb-06 23:56N 51°53' E 004°26'0 0.0
2018-Feb-06 23:29N 51°53' E 004°26'0 0.0
2018-Feb-06 22:59N 51°53' E 004°26'0 0.0
2018-Feb-06 22:29N 51°53' E 004°26'0 0.0
2018-Feb-06 21:59N 51°53' E 004°26'0 0.0
2018-Feb-06 21:29N 51°53' E 004°26'0 0.0
2018-Feb-06 20:59N 51°53' E 004°26'0 0.0
2018-Feb-06 20:29N 51°53' E 004°26'0 0.0
2018-Feb-06 19:59N 51°53' E 004°26'0 0.0
2018-Feb-06 19:29N 51°53' E 004°26'0 0.0
2018-Feb-06 18:59N 51°53' E 004°26'0 0.0
2018-Feb-06 18:29N 51°53' E 004°26'0 0.0
2018-Feb-06 17:59N 51°53' E 004°26'0 0.0
2018-Feb-06 17:29N 51°53' E 004°26'0 0.0
2018-Feb-06 16:59N 51°53' E 004°26'0 0.0
2018-Feb-06 16:29N 51°53' E 004°26'0 0.0
2018-Feb-06 15:59N 51°53' E 004°26'0 0.0
2018-Feb-06 15:29N 51°53' E 004°26'0 0.0
2018-Feb-06 14:59N 51°53' E 004°26'0 0.0
2018-Feb-06 14:29N 51°53' E 004°26'0 0.0
2018-Feb-06 13:59N 51°53' E 004°26'0 0.0
2018-Feb-06 13:29N 51°53' E 004°26'0 0.0
2018-Feb-06 12:59N 51°53' E 004°26'0 0.0
2018-Feb-06 12:29N 51°53' E 004°26'0 0.0
2018-Feb-06 11:59N 51°53' E 004°26'0 0.0
2018-Feb-06 11:29N 51°53' E 004°26'0 0.0
2018-Feb-06 10:59N 51°53' E 004°26'0 0.0
2018-Feb-06 10:29N 51°53' E 004°26'0 0.0
2018-Feb-06 09:59N 51°53' E 004°26'0 0.0
2018-Feb-06 09:29N 51°53' E 004°26'0 0.0
2018-Feb-06 08:59N 51°53' E 004°26'2 2.1
2018-Feb-06 08:00N 51°54' E 004°22'5 9.5
2018-Feb-06 07:30N 51°55' E 004°15'2311.3
2018-Feb-06 05:30N 51°58' E 003°38'1817.1
2018-Feb-06 04:28N 51°53' E 003°11'816.6
2018-Feb-06 04:00N 51°51' E 002°59'816.4
2018-Feb-06 03:30N 51°49' E 002°46'916.4
2018-Feb-06 02:58N 51°44' E 002°34'916.6
2018-Feb-06 02:27N 51°38' E 002°24'714.9
2018-Feb-06 01:59N 51°37' E 002°13'4013.4
2018-Feb-05 23:00N 51°29' E 001°10'5 9.5
2018-Feb-05 22:30N 51°30' E 001°02'612.0
2018-Feb-05 22:00N 51°29' E 000°52'713.4
2018-Feb-05 21:30N 51°30' E 000°42'8 1.4
2018-Feb-05 16:00N 51°30' E 000°29'2 1.1
2018-Feb-05 14:30N 51°30' E 000°32'1811.9
2018-Feb-05 13:00N 51°30' E 001°01'23 7.5
2018-Feb-05 10:00N 51°22' E 001°35'3 6.0
2018-Feb-05 09:30N 51°19' E 001°36'3 6.5
2018-Feb-05 09:00N 51°16' E 001°38'510.1
2018-Feb-05 08:31N 51°11' E 001°38'611.5
2018-Feb-05 08:00N 51°05' E 001°39'714.8
2018-Feb-05 07:30N 50°59' E 001°32'816.1
2018-Feb-05 07:00N 50°52' E 001°25'3417.3
2018-Feb-05 05:02N 50°28' E 000°47'417.6
2018-Feb-05 04:49N 50°27' E 000°42'917.4
2018-Feb-05 04:16N 50°24' E 000°27'517.0
2018-Feb-05 04:00N 50°23' E 000°20'817.1
2018-Feb-05 03:30N 50°21' E 000°08'917.4
2018-Feb-05 03:00N 50°18' W 000°05'3918.5
2018-Feb-05 00:55N 50°09' W 001°04'820.3
2018-Feb-05 00:30N 50°07' W 001°17'1020.7
2018-Feb-05 00:00N 50°04' W 001°32'1021.1
2018-Feb-04 23:30N 50°01' W 001°48'1121.3
2018-Feb-04 23:00N 49°59' W 002°04'1620.8
2018-Feb-04 22:13N 49°56' W 002°29'620.4
2018-Feb-04 21:56N 49°54' W 002°38'820.0
2018-Feb-04 21:30N 49°51' W 002°50'1219.8
2018-Feb-04 20:55N 49°45' W 003°05'10118.5
2018-Feb-04 15:29N 48°54' W 005°19'816.9
2018-Feb-04 15:00N 48°50' W 005°30'  
Track history (hours):
 
Tides and Currents Weather Stations Pressure Air Temp Water Temp Dewpoint Dewpoint Depression Visibility Wind Speed Wind Dir Waves Ship Positions

Marfret Marajo

Last reported at 2018-Feb-13 08:42 UTC. Time now 2018-Feb-18 01:32 UTC.
Position N 36°05' W 027°24'.

Length 170 m; draft 9.3 m.

Type: Ship (hazmat cat A). MMSI: 228349600.

Date/timePositionNaut miles runAvg speedWind from/ knotsBaromVisibWave heightAir tempDewpointWater temp
2018-Feb-13 08:42N 36°05' W 027°24'5818.0
2018-Feb-13 05:28N 36°41' W 026°28'817.9
2018-Feb-13 05:00N 36°47' W 026°20'918.2
2018-Feb-13 04:30N 36°52' W 026°12'918.4
2018-Feb-13 04:01N 36°58' W 026°03'918.4
2018-Feb-13 03:30N 37°04' W 025°54'918.4
2018-Feb-13 03:01N 37°10' W 025°45'918.8
2018-Feb-13 02:30N 37°15' W 025°35'918.7
2018-Feb-13 02:00N 37°21' W 025°26'918.7
2018-Feb-13 01:31N 37°27' W 025°17'918.5
2018-Feb-13 01:00N 37°33' W 025°08'918.2
2018-Feb-13 00:30N 37°39' W 024°59'918.6
2018-Feb-13 00:01N 37°44' W 024°49'918.3
2018-Feb-12 23:31N 37°50' W 024°40'918.4
2018-Feb-12 23:00N 37°56' W 024°31'918.6
2018-Feb-12 22:31N 38°02' W 024°23'918.5
2018-Feb-12 22:01N 38°08' W 024°14'918.4
2018-Feb-12 21:30N 38°14' W 024°05'918.4
2018-Feb-12 21:01N 38°20' W 023°56'1218.3
2018-Feb-12 20:20N 38°27' W 023°43'618.3
2018-Feb-12 20:00N 38°31' W 023°38'93818.3
2018-Feb-10 16:38N 48°20' W 006°53'1017.6
2018-Feb-10 16:05N 48°26' W 006°41'15216.0
2018-Feb-10 06:33N 49°49' W 003°26'318.3
2018-Feb-10 06:24N 49°50' W 003°22'718.1
2018-Feb-10 06:00N 49°54' W 003°13'918.1
2018-Feb-10 05:31N 49°58' W 003°00'917.4
2018-Feb-10 05:00N 50°01' W 002°47'917.3
2018-Feb-10 04:29N 50°02' W 002°33'1816.9
2018-Feb-10 03:26N 50°05' W 002°06'716.3
2018-Feb-10 03:00N 50°03' W 001°55'816.7
2018-Feb-10 02:31N 50°00' W 001°44'816.8
2018-Feb-10 02:01N 49°57' W 001°32'917.0
2018-Feb-10 01:31N 49°53' W 001°20'917.1
2018-Feb-10 01:01N 49°50' W 001°08'917.6
2018-Feb-10 00:30N 49°46' W 000°55'918.2
2018-Feb-10 00:00N 49°42' W 000°42'917.9
2018-Feb-09 23:30N 49°39' W 000°30'918.1
2018-Feb-09 23:01N 49°35' W 000°17'417.6
2018-Feb-09 22:46N 49°33' W 000°11'415.9
2018-Feb-09 22:30N 49°31' W 000°06'510.9
2018-Feb-09 22:00N 49°30' E 000°03'6 0.4
2018-Feb-09 06:00N 49°27' E 000°10'2 3.2
2018-Feb-09 05:30N 49°28' E 000°08'2 4.8
2018-Feb-09 05:00N 49°29' E 000°05'1 0.0
2018-Feb-08 10:30N 49°29' E 000°04'612.1
2018-Feb-08 10:00N 49°31' W 000°05'1514.8
2018-Feb-08 09:00N 49°46' W 000°00'6217.9
2018-Feb-08 05:30N 50°40' E 000°48'6719.1
2018-Feb-08 02:01N 51°29' E 001°60'1020.9
2018-Feb-08 01:31N 51°37' E 002°12'1121.0
2018-Feb-08 01:00N 51°45' E 002°23'4418.8
2018-Feb-07 22:41N 52°03' E 003°27'318.5
2018-Feb-07 22:30N 52°03' E 003°33'917.1
2018-Feb-07 22:00N 52°03' E 003°46'611.3
2018-Feb-07 21:31N 52°02' E 003°55'21 1.8
2018-Feb-07 09:30N 51°54' E 004°27'0 0.0
2018-Feb-07 09:00N 51°54' E 004°27'0 0.0
2018-Feb-07 08:30N 51°54' E 004°27'0 0.0
2018-Feb-07 08:00N 51°54' E 004°27'0 0.0
2018-Feb-07 07:30N 51°54' E 004°27'0 0.0
2018-Feb-07 07:00N 51°54' E 004°27'0 0.0
2018-Feb-07 06:30N 51°54' E 004°27'0 0.8
2018-Feb-07 06:00N 51°54' E 004°27'1 1.2
2018-Feb-07 05:29N 51°53' E 004°26'0 0.0
2018-Feb-07 04:59N 51°53' E 004°26'0 0.0
2018-Feb-07 04:29N 51°53' E 004°26'0 0.0
2018-Feb-07 03:59N 51°53' E 004°26'0 0.0
2018-Feb-07 03:29N 51°53' E 004°26'0 0.0
2018-Feb-07 02:59N 51°53' E 004°26'0 0.0
2018-Feb-07 02:29N 51°53' E 004°26'0 0.0
2018-Feb-07 01:59N 51°53' E 004°26'0 0.0
2018-Feb-07 01:29N 51°53' E 004°26'0 0.0
2018-Feb-07 00:59N 51°53' E 004°26'0 0.0
2018-Feb-07 00:29N 51°53' E 004°26'0 0.0
2018-Feb-06 23:56N 51°53' E 004°26'0 0.0
2018-Feb-06 23:29N 51°53' E 004°26'0 0.0
2018-Feb-06 22:59N 51°53' E 004°26'0 0.0
2018-Feb-06 22:29N 51°53' E 004°26'0 0.0
2018-Feb-06 21:59N 51°53' E 004°26'0 0.0
2018-Feb-06 21:29N 51°53' E 004°26'0 0.0
2018-Feb-06 20:59N 51°53' E 004°26'0 0.0
2018-Feb-06 20:29N 51°53' E 004°26'0 0.0
2018-Feb-06 19:59N 51°53' E 004°26'0 0.0
2018-Feb-06 19:29N 51°53' E 004°26'0 0.0
2018-Feb-06 18:59N 51°53' E 004°26'0 0.0
2018-Feb-06 18:29N 51°53' E 004°26'0 0.0
2018-Feb-06 17:59N 51°53' E 004°26'0 0.0
2018-Feb-06 17:29N 51°53' E 004°26'0 0.0
2018-Feb-06 16:59N 51°53' E 004°26'0 0.0
2018-Feb-06 16:29N 51°53' E 004°26'0 0.0
2018-Feb-06 15:59N 51°53' E 004°26'0 0.0
2018-Feb-06 15:29N 51°53' E 004°26'0 0.0
2018-Feb-06 14:59N 51°53' E 004°26'0 0.0
2018-Feb-06 14:29N 51°53' E 004°26'0 0.0
2018-Feb-06 13:59N 51°53' E 004°26'0 0.0
2018-Feb-06 13:29N 51°53' E 004°26'0 0.0
2018-Feb-06 12:59N 51°53' E 004°26'0 0.0
2018-Feb-06 12:29N 51°53' E 004°26'0 0.0
2018-Feb-06 11:59N 51°53' E 004°26'0 0.0
2018-Feb-06 11:29N 51°53' E 004°26'0 0.0
2018-Feb-06 10:59N 51°53' E 004°26'0 0.0
2018-Feb-06 10:29N 51°53' E 004°26'0 0.0
2018-Feb-06 09:59N 51°53' E 004°26'0 0.0
2018-Feb-06 09:29N 51°53' E 004°26'0 0.0
2018-Feb-06 08:59N 51°53' E 004°26'2 2.1
2018-Feb-06 08:00N 51°54' E 004°22'5 9.5
2018-Feb-06 07:30N 51°55' E 004°15'2311.3
2018-Feb-06 05:30N 51°58' E 003°38'1817.1
2018-Feb-06 04:28N 51°53' E 003°11'816.6
2018-Feb-06 04:00N 51°51' E 002°59'816.4
2018-Feb-06 03:30N 51°49' E 002°46'916.4
2018-Feb-06 02:58N 51°44' E 002°34'916.6
2018-Feb-06 02:27N 51°38' E 002°24'714.9
2018-Feb-06 01:59N 51°37' E 002°13'4013.4
2018-Feb-05 23:00N 51°29' E 001°10'5 9.5
2018-Feb-05 22:30N 51°30' E 001°02'612.0
2018-Feb-05 22:00N 51°29' E 000°52'713.4
2018-Feb-05 21:30N 51°30' E 000°42'8 1.4
2018-Feb-05 16:00N 51°30' E 000°29'2 1.1
2018-Feb-05 14:30N 51°30' E 000°32'1811.9
2018-Feb-05 13:00N 51°30' E 001°01'23 7.5
2018-Feb-05 10:00N 51°22' E 001°35'3 6.0
2018-Feb-05 09:30N 51°19' E 001°36'3 6.5
2018-Feb-05 09:00N 51°16' E 001°38'510.1
2018-Feb-05 08:31N 51°11' E 001°38'611.5
2018-Feb-05 08:00N 51°05' E 001°39'714.8
2018-Feb-05 07:30N 50°59' E 001°32'816.1
2018-Feb-05 07:00N 50°52' E 001°25'3417.3
2018-Feb-05 05:02N 50°28' E 000°47'417.6
2018-Feb-05 04:49N 50°27' E 000°42'917.4
2018-Feb-05 04:16N 50°24' E 000°27'517.0
2018-Feb-05 04:00N 50°23' E 000°20'817.1
2018-Feb-05 03:30N 50°21' E 000°08'917.4
2018-Feb-05 03:00N 50°18' W 000°05'3918.5
2018-Feb-05 00:55N 50°09' W 001°04'820.3
2018-Feb-05 00:30N 50°07' W 001°17'1020.7
2018-Feb-05 00:00N 50°04' W 001°32'1021.1
2018-Feb-04 23:30N 50°01' W 001°48'1121.3
2018-Feb-04 23:00N 49°59' W 002°04'1620.8
2018-Feb-04 22:13N 49°56' W 002°29'620.4
2018-Feb-04 21:56N 49°54' W 002°38'820.0
2018-Feb-04 21:30N 49°51' W 002°50'1219.8
2018-Feb-04 20:55N 49°45' W 003°05'10118.5
2018-Feb-04 15:29N 48°54' W 005°19'816.9
2018-Feb-04 15:00N 48°50' W 005°30'  

Dump ship's entire track history